createdAt,value
2018-12-20T00:03:11.185Z,8.87
2018-12-20T00:08:14.642Z,8.13
2018-12-20T00:13:17.915Z,8.43
2018-12-20T00:18:21.289Z,8.33
2018-12-20T00:23:24.559Z,8.23
2018-12-20T00:28:27.891Z,8.27
2018-12-20T00:33:31.276Z,8.10
2018-12-20T00:38:34.646Z,8.27
2018-12-20T00:43:37.913Z,8.67
2018-12-20T00:48:41.069Z,8.53
2018-12-20T00:53:44.357Z,8.40
2018-12-20T00:58:47.540Z,8.33
2018-12-20T01:03:50.727Z,8.73
2018-12-20T01:08:53.963Z,8.43
2018-12-20T01:13:57.162Z,7.97
2018-12-20T01:19:00.366Z,8.53
2018-12-20T01:24:05.280Z,9.30
2018-12-20T01:29:08.529Z,8.20
2018-12-20T01:34:11.798Z,7.70
2018-12-20T01:39:14.935Z,7.90
2018-12-20T01:44:18.080Z,8.63
2018-12-20T01:49:21.245Z,7.80
2018-12-20T01:54:24.630Z,7.73
2018-12-20T01:59:27.898Z,8.00
2018-12-20T02:04:31.181Z,8.37
2018-12-20T02:09:34.414Z,8.20
2018-12-20T02:14:37.584Z,7.23
2018-12-20T02:19:40.873Z,8.33
2018-12-20T02:24:44.043Z,8.63
2018-12-20T02:29:47.529Z,8.13
2018-12-20T02:34:51.036Z,8.67
2018-12-20T02:39:54.458Z,8.50
2018-12-20T02:44:57.690Z,8.50
2018-12-20T02:50:01.229Z,8.60
2018-12-20T02:55:05.356Z,7.73
2018-12-20T03:00:08.860Z,8.40
2018-12-20T03:05:12.445Z,8.07
2018-12-20T03:10:15.812Z,8.23
2018-12-20T03:15:20.174Z,9.23
2018-12-20T03:20:24.334Z,7.93
2018-12-20T03:25:27.778Z,8.57
2018-12-20T03:30:31.080Z,8.07
2018-12-20T03:35:34.525Z,7.97
2018-12-20T03:40:37.945Z,8.63
2018-12-20T03:45:41.162Z,8.57
2018-12-20T03:50:44.491Z,8.70
2018-12-20T03:55:47.675Z,8.53
2018-12-20T04:00:51.093Z,8.13
2018-12-20T04:05:54.708Z,8.50
2018-12-20T04:10:58.078Z,8.60
2018-12-20T04:16:02.203Z,8.37
2018-12-20T04:21:05.486Z,8.90
2018-12-20T04:26:08.880Z,9.03
2018-12-20T04:31:12.228Z,10.03
2018-12-20T04:36:15.678Z,9.23
2018-12-20T04:41:19.154Z,8.83
2018-12-20T04:46:22.552Z,9.50
2018-12-20T04:51:25.965Z,9.03
2018-12-20T04:56:29.311Z,9.00
2018-12-20T05:01:32.582Z,8.43
2018-12-20T05:06:36.097Z,8.97
2018-12-20T05:11:39.539Z,8.83
2018-12-20T05:16:42.844Z,8.73
2018-12-20T05:21:46.362Z,8.37
2018-12-20T05:26:49.817Z,9.70
2018-12-20T05:31:53.146Z,9.27
2018-12-20T05:36:56.468Z,9.47
2018-12-20T05:42:00.004Z,9.23
2018-12-20T05:47:03.489Z,9.10
2018-12-20T05:52:06.839Z,9.57
2018-12-20T05:57:10.037Z,9.13
2018-12-20T06:02:13.442Z,9.13
2018-12-20T06:07:23.523Z,9.40
2018-12-20T06:12:26.786Z,9.37
2018-12-20T06:17:30.038Z,10.43
2018-12-20T06:22:33.274Z,10.50
2018-12-20T06:27:36.437Z,9.70
2018-12-20T06:32:39.666Z,9.73
2018-12-20T06:37:42.861Z,10.50
2018-12-20T06:42:46.081Z,10.07
2018-12-20T06:47:49.256Z,9.77
2018-12-20T06:52:52.418Z,10.47
2018-12-20T06:57:55.663Z,10.80
2018-12-20T07:02:58.895Z,10.27
2018-12-20T07:08:02.127Z,10.80
2018-12-20T07:13:05.482Z,10.80
2018-12-20T07:18:08.656Z,10.87
2018-12-20T07:23:11.874Z,9.77
2018-12-20T07:28:15.038Z,9.80
2018-12-20T07:33:18.124Z,10.80
2018-12-20T07:38:21.294Z,10.20
2018-12-20T07:43:24.454Z,11.20
2018-12-20T07:48:32.118Z,11.23
2018-12-20T07:53:32.860Z,11.43
2018-12-20T07:58:36.074Z,10.30
2018-12-20T08:03:39.161Z,11.03
2018-12-20T08:08:42.411Z,11.50
2018-12-20T08:13:45.563Z,10.77
2018-12-20T08:18:48.803Z,11.40
2018-12-20T08:23:52.001Z,10.73
2018-12-20T08:28:55.198Z,12.00
2018-12-20T08:33:58.690Z,11.37
2018-12-20T08:39:01.919Z,12.07
2018-12-20T08:44:05.479Z,12.27
2018-12-20T08:49:08.669Z,11.27
2018-12-20T08:54:11.838Z,11.77
2018-12-20T08:59:22.398Z,11.63
2018-12-20T09:04:25.570Z,11.37
2018-12-20T09:09:28.800Z,10.97
2018-12-20T09:14:32.006Z,12.17
2018-12-20T09:19:35.185Z,11.87
2018-12-20T09:24:38.431Z,11.73
2018-12-20T09:29:41.606Z,10.83
2018-12-20T09:34:44.879Z,12.20
2018-12-20T09:39:48.057Z,10.87
2018-12-20T09:44:51.245Z,10.70
2018-12-20T09:49:54.350Z,11.63
2018-12-20T09:54:57.509Z,11.93
2018-12-20T10:00:00.718Z,11.97
2018-12-20T10:05:04.205Z,12.23
2018-12-20T10:10:07.676Z,11.57
2018-12-20T10:15:10.875Z,12.33
2018-12-20T10:20:15.458Z,11.33
2018-12-20T10:25:18.661Z,12.33
2018-12-20T10:30:21.867Z,11.90
2018-12-20T10:35:25.169Z,12.10
2018-12-20T10:40:28.369Z,12.67
2018-12-20T10:45:31.485Z,11.43
2018-12-20T10:50:34.720Z,11.83
2018-12-20T10:55:37.889Z,11.90
2018-12-20T11:01:48.367Z,11.57
2018-12-20T11:06:56.905Z,13.17
2018-12-20T11:28:24.247Z,11.27
2018-12-20T11:33:27.447Z,12.63
2018-12-20T11:38:30.622Z,12.13
2018-12-20T11:43:33.870Z,12.60
2018-12-20T11:48:37.118Z,12.13
2018-12-20T11:53:40.349Z,12.33
2018-12-20T11:58:43.607Z,12.03
2018-12-20T12:03:46.802Z,12.87
2018-12-20T12:08:50.025Z,12.50
2018-12-20T12:13:53.129Z,12.00
2018-12-20T12:18:56.275Z,11.30
2018-12-20T12:23:59.375Z,12.43
2018-12-20T12:29:02.598Z,11.93
2018-12-20T12:50:30.953Z,11.83
2018-12-20T12:55:34.203Z,12.00
2018-12-20T13:00:37.440Z,11.97
2018-12-20T13:05:40.627Z,11.97
2018-12-20T13:10:43.874Z,12.90
2018-12-20T13:15:47.036Z,12.83
2018-12-20T13:20:50.274Z,11.70
2018-12-20T13:25:53.476Z,12.57
2018-12-20T13:47:27.914Z,12.77
2018-12-20T13:52:32.852Z,12.20
2018-12-20T13:57:35.960Z,12.57
2018-12-20T14:02:39.194Z,13.33
2018-12-20T14:07:42.419Z,13.33
2018-12-20T14:12:45.631Z,13.40
2018-12-20T14:17:48.803Z,12.50
2018-12-20T14:22:52.033Z,13.10
2018-12-20T14:27:55.226Z,11.70
2018-12-20T14:32:58.334Z,12.27
2018-12-20T14:38:01.498Z,13.23
2018-12-20T14:43:04.767Z,12.87
2018-12-20T14:48:09.981Z,12.63
2018-12-20T14:53:13.201Z,12.50
2018-12-20T15:14:40.673Z,12.97
2018-12-20T15:19:43.903Z,12.67
2018-12-20T15:24:47.193Z,12.20
2018-12-20T15:29:50.306Z,12.40
2018-12-20T15:34:53.460Z,11.67
2018-12-20T15:39:56.680Z,12.03
2018-12-20T15:44:59.863Z,12.70
2018-12-20T16:06:27.308Z,12.30
2018-12-20T16:11:30.781Z,11.77
2018-12-20T16:16:34.057Z,12.20
2018-12-20T16:21:37.285Z,11.60
2018-12-20T16:26:40.536Z,11.67
2018-12-20T16:48:08.277Z,11.37
2018-12-20T16:53:11.481Z,13.00
2018-12-20T17:14:39.203Z,11.40
2018-12-20T17:19:42.398Z,12.23
2018-12-20T17:24:45.736Z,12.40
2018-12-20T17:51:41.690Z,12.87
2018-12-20T18:13:09.720Z,11.60
2018-12-20T18:18:12.902Z,11.57
2018-12-20T18:23:16.279Z,11.53
2018-12-20T18:28:19.365Z,11.80
2018-12-20T18:33:22.586Z,12.27
2018-12-20T18:38:25.866Z,10.47
2018-12-20T18:59:53.623Z,12.10
2018-12-20T19:04:56.745Z,11.00
2018-12-20T19:26:24.470Z,10.60
2018-12-20T19:31:27.989Z,10.83
2018-12-20T19:36:31.226Z,10.10
2018-12-20T19:57:59.570Z,10.37
2018-12-20T20:19:27.556Z,10.43
2018-12-20T20:24:30.791Z,10.77
2018-12-20T20:29:33.997Z,10.87
2018-12-20T20:34:37.942Z,9.43
2018-12-20T20:56:05.674Z,9.13
2018-12-20T21:01:08.892Z,10.27
2018-12-20T21:06:12.010Z,10.20
2018-12-20T21:11:15.245Z,9.77
2018-12-20T21:16:18.518Z,9.87
2018-12-20T21:21:21.745Z,9.40
2018-12-20T21:26:24.903Z,9.47
2018-12-20T21:31:28.053Z,9.37
2018-12-20T21:36:31.272Z,9.87
2018-12-20T21:41:34.485Z,9.63
2018-12-20T21:46:37.754Z,9.63
2018-12-20T21:51:40.970Z,9.53
2018-12-20T21:56:44.129Z,9.73
2018-12-20T22:01:47.288Z,8.50
2018-12-20T22:06:50.435Z,8.97
2018-12-20T22:11:53.666Z,9.70
2018-12-20T22:16:56.821Z,8.87
2018-12-20T22:22:00.038Z,8.53
2018-12-20T22:27:03.295Z,9.33
2018-12-20T22:32:06.530Z,8.77
2018-12-20T22:37:09.702Z,8.57
2018-12-20T22:42:12.933Z,8.40
2018-12-20T22:47:16.098Z,8.67
2018-12-20T22:52:19.297Z,8.40
2018-12-20T22:57:22.451Z,8.20
2018-12-20T23:02:25.623Z,8.17
2018-12-20T23:07:28.827Z,8.30
2018-12-20T23:12:32.007Z,8.43
2018-12-20T23:17:35.318Z,8.47
2018-12-20T23:22:38.542Z,9.03
2018-12-20T23:27:41.761Z,8.27
2018-12-20T23:32:44.923Z,7.53
2018-12-20T23:37:48.151Z,8.57
2018-12-20T23:42:51.293Z,9.03
2018-12-20T23:47:54.438Z,8.07
2018-12-20T23:52:57.593Z,7.73
2018-12-20T23:58:00.807Z,7.57
